Data for 07/22/2005

Time Sea-Level Adjusted Pressure Absolute Pressure Temperature Relative Humidity Dew Point   
(mb) (inHg) (mb) (inHg) (C) (F) (%) (C) (F)
00:05 1021 30.15 851 25.13 24 75.3 23 1.9 35.3
00:10 1021 30.15 851 25.13 24 75.2 23 1.8 35.3
00:15 1021 30.15 851 25.13 23.9 75 23 1.8 35.3
00:20 1021 30.15 851 25.13 23.7 74.6 23 1.6 34.9
00:25 1021 30.15 850 25.1 23.6 74.6 23 1.4 34.6
00:30 1021 30.15 850 25.1 23.6 74.5 23 1.4 34.6
00:35 1021 30.15 850 25.1 23.5 74.2 23 1.4 34.5
00:40 1021 30.15 850 25.1 23.4 74 23 1.3 34.4
00:45 1021 30.15 851 25.13 23.4 74 23 1.3 34.4
00:50 1021 30.15 851 25.13 23.3 73.9 23 1.3 34.3
00:55 1021 30.15 850 25.1 23.3 73.9 23 1.2 34.2
01:00 1021 30.15 850 25.1 23.2 73.7 23 1.3 34.3
01:05 1021 30.15 850 25.1 23.2 73.7 23 1.3 34.4
01:10 1021 30.15 850 25.1 23.1 73.5 23 1.3 34.4
01:15 1021 30.15 850 25.1 22.9 73.2 24 1.3 34.3
01:20 1021 30.15 851 25.13 22.9 73.2 24 1.3 34.3
01:25 1021 30.15 850 25.1 22.9 73.2 23 1 33.8
01:30 1021 30.15 850 25.1 22.9 73.2 24 1.2 34.2
01:35 1021 30.15 850 25.1 22.8 73.1 23 1 33.8
01:40 1021 30.15 850 25.1 22.8 73 23 1 33.8
01:45 1021 30.15 850 25.1 22.8 73 24 1.1 34.1
01:50 1021 30.15 850 25.1 22.8 73 23 1 33.9
01:55 1021 30.15 850 25.1 22.7 72.9 23 0.9 33.7
02:00 1021 30.15 850 25.1 22.8 73 23 1 33.8
02:05 1021 30.15 851 25.13 22.6 72.7 24 1.1 34
02:10 1022 30.18 851 25.13 22.6 72.7 23 0.8 33.5
02:15 1021 30.15 850 25.1 22.7 72.9 23 0.7 33.2
02:20 1021 30.15 850 25.1 22.8 73 23 0.5 32.9
02:25 1021 30.15 850 25.1 23 73.5 22 0.3 32.5
02:30 1021 30.15 850 25.1 23.1 73.5 22 0.3 32.5
02:35 1021 30.15 850 25.1 23 73.4 22 0.6 33
02:40 1021 30.15 850 25.1 22.8 73.1 23 0.7 33.2
02:45 1021 30.15 850 25.1 22.8 73 23 0.7 33.3
02:50 1021 30.15 850 25.1 22.6 72.7 24 1.4 34.5
02:55 1021 30.15 850 25.1 22.4 72.2 24 1.1 33.9
03:00 1021 30.15 850 25.1 22.3 72.1 24 1 33.8
03:05 1021 30.15 850 25.1 22.2 72 25 1.2 34.2
03:10 1021 30.15 850 25.1 22.1 71.9 24 1 33.9
03:15 1021 30.15 850 25.1 22.1 71.7 25 1.2 34.2
03:20 1021 30.15 850 25.1 22 71.5 25 1.2 34.2
03:25 1021 30.15 851 25.13 22 71.6 25 1.4 34.5
03:30 1021 30.15 850 25.1 21.8 71.3 26 1.6 34.8
03:35 1021 30.15 850 25.1 21.7 71.1 26 1.6 34.9
03:40 1021 30.15 850 25.1 21.5 70.8 26 1.7 35
03:45 1021 30.15 850 25.1 21.5 70.8 27 1.8 35.2
03:50 1021 30.15 850 25.1 21.5 70.8 27 1.7 35.1
03:55 1020 30.12 850 25.1 21.6 70.9 27 1.9 35.4
04:00 1020 30.12 849 25.07 21.7 71 27 1.9 35.4
04:05 1020 30.12 849 25.07 21.6 70.8 27 2.1 35.7
04:10 1020 30.12 849 25.07 21.4 70.4 28 2.2 36
04:15 1020 30.12 849 25.07 21.2 70.2 28 2.3 36.1
04:20 1020 30.12 849 25.07 21.2 70.1 28 2.4 36.2
04:25 1020 30.12 849 25.07 21.1 70 29 2.4 36.3
04:30 1020 30.12 849 25.07 21.1 69.9 29 2.4 36.4
04:35 1020 30.12 849 25.07 21 69.8 29 2.6 36.8
04:40 1020 30.12 849 25.07 20.9 69.6 30 2.6 36.7
04:45 1020 30.12 849 25.07 20.8 69.4 30 2.6 36.7
04:50 1020 30.12 849 25.07 20.8 69.4 30 2.6 36.8
04:55 1020 30.12 849 25.07 20.8 69.4 30 2.7 36.9
05:00 1020 30.12 849 25.07 20.7 69.2 30 2.7 36.8
05:05 1020 30.12 849 25.07 20.6 69.2 30 2.6 36.7
05:10 1020 30.12 849 25.07 20.7 69.2 30 2.7 36.9
05:15 1020 30.12 849 25.07 20.7 69.3 30 2.8 37.1
05:20 1019 30.09 849 25.07 20.7 69.2 30 2.9 37.2
05:25 1020 30.12 849 25.07 20.7 69.2 30 2.8 37
05:30 1020 30.12 849 25.07 20.7 69.3 30 2.9 37.2
05:35 1020 30.12 849 25.07 20.6 69.2 31 2.9 37.3
05:40 1020 30.12 849 25.07 20.6 69.1 30 2.8 37.1
05:45 1019 30.09 849 25.07 20.6 69.1 30 2.8 37
05:50 1020 30.12 849 25.07 20.7 69.2 30 2.6 36.7
05:55 1020 30.12 849 25.07 20.8 69.4 30 2.5 36.6
06:00 1020 30.12 849 25.07 20.9 69.6 29 2.5 36.5
06:05 1020 30.12 849 25.07 20.9 69.6 29 2.4 36.4
06:10 1020 30.12 849 25.07 20.9 69.6 29 2.5 36.5
06:15 1020 30.12 849 25.07 20.9 69.6 29 2.5 36.5
06:20 1020 30.12 849 25.07 20.9 69.6 29 2.5 36.4
06:25 1020 30.12 849 25.07 20.9 69.6 29 2.5 36.5
06:30 1020 30.12 849 25.07 20.9 69.7 29 2.3 36.1
06:35 1020 30.12 849 25.07 21.1 69.9 29 2.4 36.3
06:40 1020 30.12 849 25.07 21.1 69.9 29 2.6 36.7
06:45 1020 30.12 849 25.07 21 69.8 29 2.6 36.7
06:50 1020 30.12 850 25.1 20.9 69.7 29 2.6 36.7
06:55 1020 30.12 850 25.1 20.8 69.4 30 2.6 36.7
07:00 1020 30.12 849 25.07 20.8 69.5 30 2.7 36.9
07:05 1020 30.12 849 25.07 21 69.8 30 2.8 37
07:10 1020 30.12 849 25.07 21.1 70 30 3 37.3
07:15 1020 30.12 849 25.07 21.1 70 30 3 37.3
07:20 1020 30.12 849 25.07 21 69.8 30 3.1 37.6
07:25 1020 30.12 849 25.07 20.8 69.5 31 3.4 38.2
07:30 1020 30.12 849 25.07 20.7 69.3 31 3.3 37.9
07:35 1020 30.12 849 25.07 20.7 69.3 32 3.4 38.2
07:40 1020 30.12 849 25.07 20.7 69.2 32 3.3 38
07:45 1020 30.12 849 25.07 20.7 69.3 30 2.9 37.2
07:50 1020 30.12 849 25.07 20.8 69.4 31 3.1 37.6
07:55 1020 30.12 849 25.07 20.9 69.6 30 3 37.3
08:00 1020 30.12 849 25.07 20.9 69.7 31 3.4 38.1
08:05 1020 30.12 849 25.07 20.7 69.2 33 4 39.1
08:10 1020 30.12 850 25.1 20.4 68.6 34 3.9 39.1
08:15 1021 30.15 850 25.1 20.2 68.4 34 4 39.2
08:20 1021 30.15 850 25.1 20.1 68.2 35 4.2 39.6
08:25 1021 30.15 850 25.1 19.9 67.9 35 4.2 39.6
08:30 1021 30.15 850 25.1 20 68 35 4.3 39.8
08:35 1021 30.15 850 25.1 20.1 68.3 35 4.5 40.1
08:40 1021 30.15 850 25.1 20.1 68.2 35 4.4 39.9
08:45 1021 30.15 850 25.1 20.2 68.3 37 5.1 41.2
08:50 1021 30.15 850 25.1 20.1 68.1 37 5.3 41.5
08:55 1021 30.15 850 25.1 19.8 67.7 38 5.2 41.4
09:00 1021 30.15 850 25.1 19.7 67.4 39 5.3 41.5
09:05 1020 30.12 850 25.1 19.6 67.3 39 5.6 42
09:10 1020 30.12 850 25.1 19.7 67.4 39 5.6 42.1
09:15 1020 30.12 850 25.1 19.7 67.5 39 5.6 42.1
09:20 1020 30.12 849 25.07 19.8 67.6 40 5.8 42.5
09:25 1020 30.12 849 25.07 19.8 67.6 39 5.8 42.4
09:30 1020 30.12 849 25.07 19.9 67.8 40 5.9 42.6
09:35 1020 30.12 849 25.07 19.9 67.8 41 6.4 43.5
09:40 1020 30.12 849 25.07 19.8 67.6 41 6.3 43.4
09:45 1020 30.12 849 25.07 19.7 67.4 42 6.4 43.6
09:50 1020 30.12 849 25.07 19.8 67.6 40 5.9 42.6
09:55 1020 30.12 849 25.07 20 68 41 6.6 43.8
10:00 1020 30.12 849 25.07 20 68 41 6.4 43.5
10:05 1020 30.12 849 25.07 20 68 42 6.7 44.1
10:10 1020 30.12 849 25.07 20 67.9 41 6.6 43.8
10:15 1020 30.12 849 25.07 20.1 68.1 41 6.5 43.7
10:20 1020 30.12 849 25.07 20.2 68.4 41 6.6 43.9
10:25 1020 30.12 849 25.07 20.4 68.8 41 6.8 44.2
10:30 1020 30.12 849 25.07 20.7 69.2 39 6.5 43.7
10:35 1020 30.12 849 25.07 20.8 69.5 40 6.8 44.3
10:40 1020 30.12 849 25.07 21 69.9 40 7.1 44.8
10:45 1020 30.12 849 25.07 21.1 70 40 7.3 45.1
10:50 1020 30.12 849 25.07 21.1 69.9 39 6.7 44.1
10:55 1020 30.12 849 25.07 21.1 70 39 6.9 44.3
11:00 1020 30.12 849 25.07 21.1 69.9 38 6.5 43.7
11:05 1020 30.12 849 25.07 21.1 70 38 6.3 43.4
11:10 1020 30.12 849 25.07 21.2 70.1 38 6.5 43.7
11:15 1020 30.12 849 25.07 21.3 70.3 38 6.5 43.7
11:20 1020 30.12 849 25.07 21.2 70.2 39 6.7 44.1
11:25 1019 30.09 849 25.07 21.2 70.1 39 6.9 44.4
11:30 1020 30.12 849 25.07 21.2 70.1 38 6.6 43.9
11:35 1020 30.12 849 25.07 21.2 70.2 38 6.6 43.9
11:40 1019 30.09 849 25.07 21.3 70.4 38 6.8 44.2
11:45 1019 30.09 849 25.07 21.4 70.4 38 6.6 43.9
11:50 1019 30.09 849 25.07 21.4 70.5 39 6.9 44.4
11:55 1020 30.12 849 25.07 21.4 70.4 38 6.6 43.9
12:00 1020 30.12 849 25.07 21.3 70.4 41 7.7 45.8
12:05 1019 30.09 849 25.07 21.1 70 41 7.5 45.5
12:10 1019 30.09 849 25.07 21.1 70 41 7.5 45.5
12:15 1019 30.09 849 25.07 21 69.8 42 7.9 46.3
12:20 1019 30.09 849 25.07 20.9 69.6 43 7.9 46.2
12:25 1019 30.09 849 25.07 21.1 69.9 41 7.6 45.6
12:30 1019 30.09 848 25.04 21.4 70.4 41 7.8 46.1
12:35 1019 30.09 848 25.04 21.8 71.3 40 7.6 45.8
12:40 1019 30.09 848 25.04 22.4 72.2 43 9.3 48.7
12:45 1019 30.09 848 25.04 21.8 71.3 45 9.4 48.9
12:50 1019 30.09 848 25.04 23 73.3 40 9 48.1
12:55 1019 30.09 848 25.04 25.4 77.6 36 9.3 48.8
13:00 1019 30.09 848 25.04 25.9 78.6 35 9.5 49.1
13:05 1019 30.09 848 25.04 25.7 78.3 35 9.4 48.9
13:10 1019 30.09 848 25.04 25.7 78.3 34 9.1 48.5
13:15 1019 30.09 848 25.04 25.7 78.2 37 10 50
13:20 1019 30.09 848 25.04 25.9 78.5 34 9.2 48.5
13:25 1019 30.09 848 25.04 26.4 79.5 34 9.4 48.9
13:30 1019 30.09 848 25.04 26.7 80 30 8.2 46.7
13:35 1019 30.09 848 25.04 26.9 80.5 31 8.5 47.3
13:40 1018 30.06 848 25.04 27 80.6 29 8 46.3
13:45 1018 30.06 848 25.04 27.1 80.8 29 8.1 46.6
13:50 1019 30.09 848 25.04 27 80.7 30 8.1 46.6
13:55 1019 30.09 848 25.04 26.8 80.2 31 8.4 47.2
14:00 1018 30.06 848 25.04 26.7 80.1 31 8.3 46.9
14:05 1018 30.06 848 25.04 27 80.7 30 8.1 46.5
14:10 1018 30.06 847 25.01 27.4 81.2 28 7.5 45.6
14:15 1018 30.06 847 25.01 27.4 81.2 29 8.2 46.8
14:20 1018 30.06 847 25.01 27.1 80.8 30 8.4 47.2
14:25 1018 30.06 847 25.01 27.2 80.9 29 8 46.5
14:30 1018 30.06 847 25.01 27.4 81.3 29 7.9 46.2
14:35 1018 30.06 847 25.01 27.6 81.7 30 8.6 47.4
14:40 1018 30.06 847 25.01 27.8 82 29 8.6 47.4
14:45 1018 30.06 847 25.01 27.9 82.2 29 8.6 47.5
14:50 1018 30.06 847 25.01 28.4 83.1 29 8.8 47.9
14:55 1018 30.06 847 25.01 28.9 84 27 8.4 47.2
15:00 1018 30.06 847 25.01 29 84.2 27 8.5 47.3
15:05 1018 30.06 847 25.01 29.2 84.5 27 8.4 47.2
15:10 1018 30.06 847 25.01 29.2 84.6 26 8.3 46.9
15:15 1018 30.06 847 25.01 29.2 84.5 27 8.6 47.4
15:20 1017 30.03 847 25.01 29.2 84.5 28 8.8 47.9
15:25 1017 30.03 846 24.98 29.4 84.9 27 8.6 47.5
15:30 1017 30.03 846 24.98 29.7 85.5 26 8.5 47.3
15:35 1017 30.03 846 24.98 30.4 86.8 25 8.6 47.5
15:40 1017 30.03 846 24.98 30.6 87 25 8.7 47.7
15:45 1017 30.03 846 24.98 30.6 87.1 25 8.7 47.7
15:50 1017 30.03 846 24.98 30.6 87.1 26 9.1 48.4
15:55 1017 30.03 846 24.98 30.5 86.9 24 8.2 46.7
16:00 1017 30.03 846 24.98 30.4 86.7 24 7.7 45.8
16:05 1017 30.03 846 24.98 30.5 86.9 25 8.8 47.9
16:10 1016 30 846 24.98 30.4 86.6 25 8.7 47.6
16:15 1016 30 846 24.98 30.3 86.5 26 8.7 47.6
16:20 1016 30 846 24.98 30.4 86.7 26 9.3 48.8
16:25 1016 30 846 24.98 30.2 86.4 24 7.9 46.2
16:30 1016 30 845 24.95 30.4 86.7 24 8.1 46.7
16:35 1016 30 846 24.98 30.4 86.7 26 9.3 48.7
16:40 1016 30 845 24.95 30.4 86.7 28 10 50.1
16:45 1016 30 845 24.95 30.9 87.5 25 9.1 48.3
16:50 1016 30 845 24.95 31.4 88.5 25 9.1 48.5
16:55 1016 30 845 24.95 31.7 89.1 24 8.8 47.8
17:00 1016 30 845 24.95 31.9 89.4 24 9.5 49
17:05 1016 30 845 24.95 32 89.6 23 8.5 47.2
17:10 1016 30 845 24.95 32.2 89.9 21 7.5 45.5
17:15 1016 30 845 24.95 32 89.6 21 7.2 44.9
17:20 1016 30 845 24.95 32.1 89.8 20 6.9 44.4
17:25 1016 30 845 24.95 32.5 90.4 22 8.3 46.9
17:30 1015 29.97 845 24.95 32.5 90.5 21 7.6 45.8
17:35 1015 29.97 845 24.95 32.2 90 22 8.2 46.7
17:40 1015 29.97 845 24.95 31.6 88.8 22 7.3 45.2
17:45 1015 29.97 845 24.95 31.4 88.5 22 7.8 46.1
17:50 1015 29.97 845 24.95 31.4 88.6 23 8.1 46.6
17:55 1015 29.97 845 24.95 31.7 89.1 23 8.2 46.8
18:00 1015 29.97 845 24.95 31.8 89.2 22 8 46.5
18:05 1015 29.97 845 24.95 31.9 89.4 22 7.8 46.1
18:10 1015 29.97 845 24.95 32 89.6 22 7.9 46.2
18:15 1015 29.97 845 24.95 32 89.6 21 7.4 45.3
18:20 1015 29.97 845 24.95 32.3 90.1 22 8.2 46.7
18:25 1015 29.97 845 24.95 32.2 89.9 22 7.9 46.2
18:30 1015 29.97 845 24.95 32.2 89.9 22 8.3 46.9
18:35 1015 29.97 845 24.95 32.1 89.8 24 9.6 49.3
18:40 1015 29.97 844 24.92 31.8 89.3 24 9.4 48.9
18:45 1015 29.97 844 24.92 31.7 89.1 26 10.1 50.2
18:50 1015 29.97 844 24.92 31.6 88.8 22 8 46.3
18:55 1015 29.97 844 24.92 31.4 88.6 26 9.8 49.6
19:00 1015 29.97 844 24.92 31.1 87.9 26 9.6 49.3
19:05 1015 29.97 844 24.92 31.4 88.5 23 8.2 46.8
19:10 1015 29.97 844 24.92 31.7 89.1 23 8.5 47.3
19:15 1015 29.97 844 24.92 31.5 88.7 22 7.9 46.1
19:20 1015 29.97 844 24.92 30.9 87.6 24 8.6 47.5
19:25 1015 29.97 844 24.92 30.9 87.6 24 8.4 47.1
19:30 1015 29.97 844 24.92 31 87.7 25 9.2 48.5
19:35 1015 29.97 844 24.92 30.9 87.7 25 9.2 48.5
19:40 1015 29.97 844 24.92 30.8 87.4 27 9.9 49.9
19:45 1015 29.97 844 24.92 30.6 87.1 25 8.9 48.1
19:50 1015 29.97 844 24.92 30.3 86.6 25 8.7 47.7
19:55 1015 29.97 844 24.92 30 86 27 9.2 48.5
20:00 1015 29.97 844 24.92 29.3 84.8 28 9.4 49
20:05 1015 29.97 844 24.92 29.1 84.3 28 9.1 48.3
20:10 1015 29.97 844 24.92 29 84.3 29 9.7 49.4
20:15 1015 29.97 844 24.92 28.7 83.6 28 8.8 47.8
20:20 1015 29.97 844 24.92 28.9 84 28 9 48.2
20:25 1015 29.97 844 24.92 28.9 84.1 28 8.7 47.7
20:30 1015 29.97 844 24.92 29 84.1 28 9.1 48.4
20:35 1015 29.97 844 24.92 28.9 83.9 30 9.6 49.4
20:40 1015 29.97 844 24.92 28.5 83.2 32 10.4 50.8
20:45 1015 29.97 844 24.92 27.7 81.8 34 10.5 51
20:50 1016 30 845 24.95 26.9 80.3 42 13.1 55.6
20:55 1016 30 845 24.95 25.6 78 45 12.9 55.2
21:00 1016 30 845 24.95 25 76.9 47 13.1 55.6
21:05 1016 30 845 24.95 24.6 76.3 48 13.1 55.5
21:10 1016 30 846 24.98 24.5 76.1 48 12.9 55.3
21:15 1016 30 846 24.98 24.3 75.7 49 13.2 55.7
21:20 1016 30 846 24.98 24.1 75.3 50 13.2 55.7
21:25 1017 30.03 846 24.98 24.1 75.4 49 12.9 55.2
21:30 1016 30 846 24.98 24.3 75.7 45 12 53.5
21:35 1016 30 846 24.98 24.5 76 47 12.7 54.8
21:40 1017 30.03 846 24.98 24.3 75.7 53 14.1 57.5
21:45 1018 30.06 847 25.01 23.7 74.7 46 11.7 53.1
21:50 1018 30.06 847 25.01 23.1 73.6 61 15.3 59.6
21:55 1018 30.06 847 25.01 21.6 70.9 54 11.9 53.4
22:00 1018 30.06 847 25.01 20.9 69.6 65 14.2 57.5
22:05 1018 30.06 847 25.01 20.2 68.3 70 14.6 58.3
22:10 1018 30.06 847 25.01 20 68 72 14.9 58.9
22:15 1018 30.06 847 25.01 19.5 67.1 74 14.8 58.7
22:20 1017 30.03 846 24.98 19.3 66.7 78 15.4 59.7
22:25 1017 30.03 846 24.98 19.1 66.4 80 15.6 60
22:30 1017 30.03 846 24.98 19.1 66.3 79 15.3 59.5
22:35 1017 30.03 846 24.98 19.4 66.9 75 14.8 58.7
22:40 1017 30.03 846 24.98 19.4 66.9 76 15.1 59.1
22:45 1017 30.03 846 24.98 19.3 66.7 78 15.4 59.7
22:50 1017 30.03 846 24.98 19 66.2 78 15.1 59.2
22:55 1017 30.03 846 24.98 19.1 66.5 76 14.9 58.8
23:00 1017 30.03 846 24.98 19.2 66.6 74 14.6 58.2
23:05 1017 30.03 846 24.98 19.4 66.9 73 14.5 58.1
23:10 1017 30.03 846 24.98 19.4 66.8 73 14.5 58.1
23:15 1017 30.03 846 24.98 19.6 67.3 71 14.4 57.9
23:20 1017 30.03 846 24.98 19.8 67.6 68 13.9 57
23:25 1017 30.03 846 24.98 20.3 68.5 64 13.3 55.9
23:30 1017 30.03 846 24.98 20.8 69.4 63 13.6 56.4
23:35 1017 30.03 846 24.98 20.8 69.4 65 14.1 57.3
23:40 1016 30 845 24.95 22.8 73.1 41 9 48.1
23:45 1016 30 846 24.98 23.8 74.8 50 12.8 55
23:50 1017 30.03 846 24.98 22.7 72.9 51 12.2 54
23:55 1017 30.03 846 24.98 23.5 74.2 47 11.7 53
24:00 1017 30.03 846 24.98 22.9 73.2 51 12.5 54.5